Time;durP1;ratioP1;P1;durP2;ratioP2;P2;SDS_P1;SDS_P2;PMS_P1;PMS_P2;Temp;Humidity;BMP_temperature;BMP_pressure;BME280_temperature;BME280_humidity;BME280_pressure;Samples;Min_cycle;Max_cycle;Signal;HPM_P1;HPM_P2
2022/03/21 00:00:56;;;;;;;34.85;23.40;;;;;;;;;;5026223;28;20056;-64
2022/03/21 00:03:28;;;;;;;33.03;26.30;;;;;;;;;;5027058;28;20053;-62
2022/03/21 00:05:55;;;;;;;33.00;24.67;;;;;;;;;;5008868;28;20132;-62
2022/03/21 00:08:24;;;;;;;38.03;28.90;;;;;;;;;;5043109;28;20041;-63
2022/03/21 00:10:52;;;;;;;37.38;27.00;;;;;;;;;;5025998;28;20068;-63
2022/03/21 00:13:18;;;;;;;36.13;29.10;;;;;;;;;;5026744;28;20042;-62
2022/03/21 00:15:45;;;;;;;41.33;26.83;;;;;;;;;;5009613;28;20499;-62
2022/03/21 00:18:15;;;;;;;34.55;29.15;;;;;;;;;;5009927;28;20087;-62
2022/03/21 00:20:45;;;;;;;30.98;25.10;;;;;;;;;;5013742;28;20697;-62
2022/03/21 00:23:11;;;;;;;37.38;28.40;;;;;;;;;;5029887;28;20050;-63
2022/03/21 00:25:38;;;;;;;33.10;25.25;;;;;;;;;;5013118;28;20095;-62
2022/03/21 00:28:04;;;;;;;30.75;25.23;;;;;;;;;;5011532;28;20092;-64
2022/03/21 00:30:31;;;;;;;33.60;25.13;;;;;;;;;;5029944;28;20115;-63
2022/03/21 00:32:58;;;;;;;30.92;25.02;;;;;;;;;;5014261;28;20049;-62
2022/03/21 00:35:24;;;;;;;34.28;24.80;;;;;;;;;;5030716;28;20065;-61
2022/03/21 00:37:50;;;;;;;35.15;25.90;;;;;;;;;;5011747;28;20483;-62
2022/03/21 00:40:17;;;;;;;34.78;27.48;;;;;;;;;;5030163;28;20145;-64
2022/03/21 00:42:44;;;;;;;32.42;25.33;;;;;;;;;;5031323;28;20518;-64
2022/03/21 00:45:12;;;;;;;29.33;24.33;;;;;;;;;;5028054;28;20038;-62
2022/03/21 00:47:39;;;;;;;33.38;25.48;;;;;;;;;;5030911;28;20034;-63
2022/03/21 00:50:06;;;;;;;33.22;25.65;;;;;;;;;;5030749;28;20037;-64
2022/03/21 00:52:32;;;;;;;33.90;25.25;;;;;;;;;;5029115;28;20128;-63
2022/03/21 00:54:59;;;;;;;31.88;26.63;;;;;;;;;;5029051;28;20049;-63
2022/03/21 00:57:25;;;;;;;32.05;26.17;;;;;;;;;;5046266;28;20079;-64
2022/03/21 00:59:52;;;;;;;30.65;25.45;;;;;;;;;;5028593;28;20053;-63
2022/03/21 01:02:18;;;;;;;34.13;25.98;;;;;;;;;;5030247;28;20049;-62
2022/03/21 01:04:44;;;;;;;31.50;24.40;;;;;;;;;;5031100;28;20448;-63
2022/03/21 01:07:10;;;;;;;35.05;26.58;;;;;;;;;;5029808;28;20130;-63
2022/03/21 01:09:36;;;;;;;31.98;25.35;;;;;;;;;;5029572;28;20064;-62
2022/03/21 01:12:03;;;;;;;31.85;26.05;;;;;;;;;;5030789;28;20053;-64
2022/03/21 01:14:31;;;;;;;32.05;24.63;;;;;;;;;;5010320;28;20069;-64
2022/03/21 01:16:57;;;;;;;33.03;26.05;;;;;;;;;;5029850;28;20060;-63
2022/03/21 01:19:24;;;;;;;36.88;27.15;;;;;;;;;;5029610;28;20041;-63
2022/03/21 01:21:50;;;;;;;34.95;26.13;;;;;;;;;;5028430;28;20042;-63
2022/03/21 01:24:16;;;;;;;32.42;26.83;;;;;;;;;;5028364;28;20493;-62
2022/03/21 01:26:42;;;;;;;33.92;26.17;;;;;;;;;;5029522;28;20044;-63
2022/03/21 01:29:08;;;;;;;34.05;26.50;;;;;;;;;;5029502;28;20118;-63
2022/03/21 01:31:34;;;;;;;31.30;24.63;;;;;;;;;;5028048;28;20407;-62
2022/03/21 01:34:00;;;;;;;33.83;25.15;;;;;;;;;;5028546;28;20049;-62
2022/03/21 01:36:26;;;;;;;33.72;25.80;;;;;;;;;;5028225;28;20040;-64
2022/03/21 01:38:52;;;;;;;35.35;24.75;;;;;;;;;;5010488;28;20042;-62
2022/03/21 01:41:18;;;;;;;31.92;24.70;;;;;;;;;;5029405;28;20090;-62
2022/03/21 01:43:57;;;;;;;32.15;24.55;;;;;;;;;;5044812;28;20487;-63
2022/03/21 01:46:23;;;;;;;33.13;25.70;;;;;;;;;;5029746;28;20041;-63
2022/03/21 01:48:49;;;;;;;33.20;24.52;;;;;;;;;;5029033;28;20068;-63
2022/03/21 01:51:15;;;;;;;32.45;24.20;;;;;;;;;;5028576;28;20391;-62
2022/03/21 01:56:27;;;;;;;36.88;26.83;;;;;;;;;;5028007;28;20052;-62
2022/03/21 01:58:54;;;;;;;33.53;25.10;;;;;;;;;;5027757;28;20052;-64
2022/03/21 02:01:20;;;;;;;31.60;26.23;;;;;;;;;;5011408;28;20527;-62
2022/03/21 02:03:46;;;;;;;32.05;26.08;;;;;;;;;;5029843;28;20037;-62
2022/03/21 02:06:12;;;;;;;31.85;27.75;;;;;;;;;;5027383;28;20502;-62
2022/03/21 02:08:38;;;;;;;33.17;26.95;;;;;;;;;;5029755;28;20490;-63
2022/03/21 02:11:04;;;;;;;34.20;26.80;;;;;;;;;;5028482;28;20040;-63
2022/03/21 02:13:31;;;;;;;31.48;27.23;;;;;;;;;;5026293;28;20482;-62
2022/03/21 02:15:58;;;;;;;33.17;27.45;;;;;;;;;;5028384;28;20085;-61
2022/03/21 02:18:26;;;;;;;35.60;27.00;;;;;;;;;;5029696;28;20049;-61
2022/03/21 02:20:52;;;;;;;34.80;26.60;;;;;;;;;;5028356;28;20112;-63
2022/03/21 02:23:42;;;;;;;35.72;26.67;;;;;;;;;;5010386;28;20050;-61
2022/03/21 02:26:09;;;;;;;31.65;25.75;;;;;;;;;;5027400;28;20064;-63
2022/03/21 02:28:35;;;;;;;33.83;26.85;;;;;;;;;;5027553;28;20037;-62
2022/03/21 02:31:01;;;;;;;34.17;26.80;;;;;;;;;;4989371;28;1132005;-62
2022/03/21 02:33:29;;;;;;;39.33;29.70;;;;;;;;;;5029398;28;20114;-63
2022/03/21 02:35:56;;;;;;;38.55;29.48;;;;;;;;;;5028549;28;20479;-63
2022/03/21 02:38:24;;;;;;;36.35;28.42;;;;;;;;;;5028466;28;20045;-62
2022/03/21 02:40:50;;;;;;;38.47;30.25;;;;;;;;;;5029775;28;20056;-63
2022/03/21 02:43:16;;;;;;;35.35;28.30;;;;;;;;;;5027758;28;20107;-62
2022/03/21 02:45:42;;;;;;;36.67;29.48;;;;;;;;;;5028163;28;20049;-63
2022/03/21 02:48:08;;;;;;;40.08;28.88;;;;;;;;;;5028368;28;20045;-62
2022/03/21 02:50:39;;;;;;;36.17;28.80;;;;;;;;;;5030007;28;20415;-62
2022/03/21 02:53:06;;;;;;;35.90;28.55;;;;;;;;;;5027853;28;20131;-63
2022/03/21 02:55:33;;;;;;;34.65;29.15;;;;;;;;;;5028444;28;20064;-62
2022/03/21 02:57:59;;;;;;;40.53;29.15;;;;;;;;;;5029721;28;20380;-62
2022/03/21 03:00:25;;;;;;;37.67;28.20;;;;;;;;;;5029442;28;20845;-61
2022/03/21 03:02:51;;;;;;;36.08;29.08;;;;;;;;;;5029420;28;20048;-62
2022/03/21 03:05:17;;;;;;;38.90;28.50;;;;;;;;;;5028094;28;20116;-63
2022/03/21 03:07:43;;;;;;;33.65;25.23;;;;;;;;;;5028169;28;20564;-62
2022/03/21 03:10:09;;;;;;;32.88;25.88;;;;;;;;;;5026659;28;20038;-62
2022/03/21 03:12:36;;;;;;;33.58;26.50;;;;;;;;;;5029330;28;20507;-62
2022/03/21 03:15:02;;;;;;;32.83;25.83;;;;;;;;;;5029420;28;20510;-63
2022/03/21 03:17:28;;;;;;;33.33;26.25;;;;;;;;;;5028090;28;20045;-62
2022/03/21 03:19:54;;;;;;;35.15;26.88;;;;;;;;;;5029354;28;20041;-62
2022/03/21 03:22:21;;;;;;;35.00;26.50;;;;;;;;;;5011127;28;20038;-62
2022/03/21 03:24:48;;;;;;;34.55;26.77;;;;;;;;;;5027804;28;20557;-64
2022/03/21 03:27:14;;;;;;;36.00;26.95;;;;;;;;;;5012177;28;20072;-62
2022/03/21 03:29:41;;;;;;;33.65;26.95;;;;;;;;;;5025651;28;20045;-62
2022/03/21 03:32:09;;;;;;;34.15;25.45;;;;;;;;;;5009809;28;20050;-62
2022/03/21 03:34:35;;;;;;;35.30;25.60;;;;;;;;;;5028661;28;20037;-61
2022/03/21 03:37:01;;;;;;;35.92;27.55;;;;;;;;;;5027674;28;20488;-63
2022/03/21 03:39:29;;;;;;;36.65;26.75;;;;;;;;;;5026567;28;20068;-61
2022/03/21 03:41:55;;;;;;;34.08;26.02;;;;;;;;;;5010338;28;20432;-61
2022/03/21 03:44:23;;;;;;;35.80;26.17;;;;;;;;;;5010907;28;20033;-62
2022/03/21 03:46:49;;;;;;;31.65;25.77;;;;;;;;;;5027611;28;20053;-61
2022/03/21 03:49:15;;;;;;;34.30;26.55;;;;;;;;;;5027200;28;20041;-60
2022/03/21 03:51:42;;;;;;;34.75;24.73;;;;;;;;;;5027322;28;21327;-61
2022/03/21 03:54:08;;;;;;;30.55;24.15;;;;;;;;;;5027994;28;20098;-61
2022/03/21 03:56:34;;;;;;;32.70;25.73;;;;;;;;;;5010991;28;20369;-60
2022/03/21 03:59:00;;;;;;;33.20;23.65;;;;;;;;;;5027044;28;20048;-60
2022/03/21 04:01:26;;;;;;;35.20;26.50;;;;;;;;;;5027019;28;20045;-61
2022/03/21 04:03:52;;;;;;;34.25;23.52;;;;;;;;;;5027168;28;20042;-62
2022/03/21 04:06:20;;;;;;;34.70;26.60;;;;;;;;;;5028088;28;20046;-61
2022/03/21 04:08:47;;;;;;;33.38;25.65;;;;;;;;;;5028206;28;20037;-60
2022/03/21 04:11:14;;;;;;;35.75;26.38;;;;;;;;;;5026701;28;20045;-62
2022/03/21 04:13:40;;;;;;;35.33;25.70;;;;;;;;;;5028026;28;20049;-63
2022/03/21 04:16:06;;;;;;;37.17;26.27;;;;;;;;;;5027503;28;20570;-61
2022/03/21 04:18:33;;;;;;;33.42;26.80;;;;;;;;;;5028428;28;20041;-62
2022/03/21 04:20:59;;;;;;;40.65;30.33;;;;;;;;;;5027177;28;20140;-61
2022/03/21 04:23:28;;;;;;;38.67;28.65;;;;;;;;;;5027991;28;20048;-61
2022/03/21 04:25:54;;;;;;;38.65;29.33;;;;;;;;;;5026698;28;20119;-62
2022/03/21 04:28:20;;;;;;;41.13;31.00;;;;;;;;;;5009924;28;20129;-62
2022/03/21 04:30:47;;;;;;;41.80;31.25;;;;;;;;;;5025954;28;20515;-62
2022/03/21 04:33:13;;;;;;;43.90;33.40;;;;;;;;;;5026140;28;20053;-61
2022/03/21 04:35:40;;;;;;;42.67;31.63;;;;;;;;;;5041964;28;20124;-61
2022/03/21 04:38:13;;;;;;;42.80;33.65;;;;;;;;;;5025474;28;20041;-63
2022/03/21 04:40:44;;;;;;;45.97;32.58;;;;;;;;;;5023526;28;20030;-62
2022/03/21 04:43:10;;;;;;;44.25;33.45;;;;;;;;;;5025627;28;20806;-63
2022/03/21 04:45:37;;;;;;;50.20;35.40;;;;;;;;;;5025695;28;20033;-62
2022/03/21 04:48:04;;;;;;;47.47;35.88;;;;;;;;;;5026248;28;20458;-62
2022/03/21 04:50:30;;;;;;;55.63;38.08;;;;;;;;;;5026003;28;20072;-62
2022/03/21 04:52:56;;;;;;;49.55;37.72;;;;;;;;;;5025893;28;20522;-61
2022/03/21 04:55:22;;;;;;;51.78;37.67;;;;;;;;;;5025409;28;20513;-63
2022/03/21 04:57:48;;;;;;;53.05;37.72;;;;;;;;;;5009483;28;20047;-62
2022/03/21 05:00:15;;;;;;;53.90;38.83;;;;;;;;;;5027124;28;20046;-62
2022/03/21 05:02:41;;;;;;;52.58;39.47;;;;;;;;;;5027263;28;20045;-61
2022/03/21 05:05:11;;;;;;;57.63;40.53;;;;;;;;;;5026760;28;20037;-63
2022/03/21 05:07:41;;;;;;;57.08;40.88;;;;;;;;;;5031691;28;20116;-62
2022/03/21 05:10:07;;;;;;;58.25;39.80;;;;;;;;;;5031789;28;20037;-63
2022/03/21 05:12:33;;;;;;;60.90;41.63;;;;;;;;;;5032152;28;20036;-62
2022/03/21 05:14:59;;;;;;;58.53;41.20;;;;;;;;;;5014084;28;20095;-62
2022/03/21 05:17:28;;;;;;;64.55;45.38;;;;;;;;;;5031288;28;20120;-62
2022/03/21 05:19:54;;;;;;;66.47;44.65;;;;;;;;;;5029343;28;20053;-62
2022/03/21 05:22:20;;;;;;;64.05;44.40;;;;;;;;;;5029305;28;20042;-62
2022/03/21 05:35:55;;;;;;;66.32;46.30;;;;;;;;;;5030916;28;20068;-63
2022/03/21 05:38:22;;;;;;;67.65;45.10;;;;;;;;;;5013162;28;20037;-62
2022/03/21 05:40:49;;;;;;;74.70;48.90;;;;;;;;;;5029667;28;20129;-62
2022/03/21 05:43:15;;;;;;;73.07;47.70;;;;;;;;;;5029449;28;20056;-61
2022/03/21 05:45:41;;;;;;;75.68;49.40;;;;;;;;;;5046246;28;20029;-62
2022/03/21 05:50:52;;;;;;;72.88;48.47;;;;;;;;;;5029597;28;21707;-62
2022/03/21 05:53:18;;;;;;;74.15;49.97;;;;;;;;;;5030088;28;20108;-61
2022/03/21 05:55:45;;;;;;;69.82;47.75;;;;;;;;;;5029481;28;20045;-63
2022/03/21 05:58:12;;;;;;;74.90;49.45;;;;;;;;;;5030750;28;20037;-62
2022/03/21 06:00:39;;;;;;;74.88;47.92;;;;;;;;;;5030261;28;20056;-62
2022/03/21 06:03:08;;;;;;;77.78;50.63;;;;;;;;;;5027756;28;20052;-61
2022/03/21 06:05:35;;;;;;;68.13;48.92;;;;;;;;;;5011941;28;20540;-62
2022/03/21 06:08:01;;;;;;;71.35;46.08;;;;;;;;;;5013371;28;20059;-62
2022/03/21 06:10:27;;;;;;;66.47;45.30;;;;;;;;;;5029362;28;20142;-61
2022/03/21 06:12:55;;;;;;;62.88;45.38;;;;;;;;;;5028932;28;20563;-61
2022/03/21 06:15:21;;;;;;;64.28;44.63;;;;;;;;;;5031118;28;20113;-62
2022/03/21 06:17:47;;;;;;;62.35;44.38;;;;;;;;;;5028606;28;20045;-63
2022/03/21 06:20:17;;;;;;;58.35;40.92;;;;;;;;;;5028947;28;20044;-61
2022/03/21 06:22:43;;;;;;;58.35;40.47;;;;;;;;;;5028279;28;20507;-61
2022/03/21 06:25:10;;;;;;;54.78;40.30;;;;;;;;;;5028442;28;20041;-62
2022/03/21 06:27:37;;;;;;;53.38;37.92;;;;;;;;;;5029517;28;20041;-62
2022/03/21 06:30:04;;;;;;;46.45;33.97;;;;;;;;;;5029928;28;20045;-63
2022/03/21 06:32:30;;;;;;;42.08;33.60;;;;;;;;;;5011852;28;20080;-61
2022/03/21 06:34:56;;;;;;;42.78;32.28;;;;;;;;;;5012187;28;20041;-62
2022/03/21 06:37:22;;;;;;;42.75;31.23;;;;;;;;;;5029858;28;20662;-62
2022/03/21 06:39:48;;;;;;;40.22;29.58;;;;;;;;;;5028800;28;20053;-62
2022/03/21 06:42:15;;;;;;;34.55;27.55;;;;;;;;;;5029554;28;20030;-62
2022/03/21 06:44:42;;;;;;;35.47;25.90;;;;;;;;;;5027511;28;20045;-61
2022/03/21 06:47:08;;;;;;;33.28;23.77;;;;;;;;;;5028693;28;20053;-60
2022/03/21 06:49:35;;;;;;;29.23;23.40;;;;;;;;;;5027591;28;20357;-60
2022/03/21 06:52:08;;;;;;;35.60;24.48;;;;;;;;;;5027789;28;20502;-61
2022/03/21 06:54:34;;;;;;;31.05;23.73;;;;;;;;;;5028888;28;20061;-60
2022/03/21 06:57:00;;;;;;;31.42;24.80;;;;;;;;;;5027921;28;20045;-60
2022/03/21 06:59:26;;;;;;;29.25;24.90;;;;;;;;;;5028759;28;20502;-60
2022/03/21 07:01:52;;;;;;;30.58;25.40;;;;;;;;;;5044537;28;20048;-61
2022/03/21 07:04:18;;;;;;;30.85;25.83;;;;;;;;;;5028159;28;20400;-61
2022/03/21 07:06:44;;;;;;;29.52;24.90;;;;;;;;;;5029272;28;20037;-61
2022/03/21 07:09:11;;;;;;;31.02;25.38;;;;;;;;;;5029066;28;20045;-61
2022/03/21 07:11:37;;;;;;;32.15;25.90;;;;;;;;;;5027533;28;20037;-60
2022/03/21 07:14:03;;;;;;;33.33;26.73;;;;;;;;;;5028935;28;20411;-61
2022/03/21 07:16:29;;;;;;;30.80;26.35;;;;;;;;;;5029309;28;20115;-59
2022/03/21 07:18:55;;;;;;;31.83;26.77;;;;;;;;;;5026721;28;20045;-61
2022/03/21 07:21:22;;;;;;;31.25;26.55;;;;;;;;;;5029056;28;20113;-61
2022/03/21 07:23:48;;;;;;;32.90;25.60;;;;;;;;;;5027049;28;20045;-60
2022/03/21 07:26:14;;;;;;;29.05;25.33;;;;;;;;;;5026402;28;20136;-61
2022/03/21 07:28:40;;;;;;;29.67;25.42;;;;;;;;;;5010396;28;20041;-60
2022/03/21 07:31:10;;;;;;;30.45;25.10;;;;;;;;;;5027900;28;20048;-60
2022/03/21 07:33:46;;;;;;;31.75;27.35;;;;;;;;;;5026635;28;21403;-60
2022/03/21 07:36:12;;;;;;;29.95;26.02;;;;;;;;;;5044101;28;20124;-62
2022/03/21 07:38:38;;;;;;;28.63;24.58;;;;;;;;;;5028374;28;20131;-63
2022/03/21 07:41:08;;;;;;;28.25;25.02;;;;;;;;;;5028303;28;20033;-62
2022/03/21 07:43:34;;;;;;;28.15;25.13;;;;;;;;;;5028790;28;20041;-62
2022/03/21 07:48:46;;;;;;;27.52;24.38;;;;;;;;;;5026922;28;20048;-62
2022/03/21 07:51:12;;;;;;;29.70;24.80;;;;;;;;;;5026690;28;20498;-64
2022/03/21 07:53:38;;;;;;;29.60;24.13;;;;;;;;;;5026697;28;20033;-60
2022/03/21 07:56:05;;;;;;;26.38;22.98;;;;;;;;;;5027004;28;20052;-63
2022/03/21 07:58:31;;;;;;;29.58;23.33;;;;;;;;;;5027966;28;20037;-62
2022/03/21 08:00:59;;;;;;;26.45;22.52;;;;;;;;;;5026321;28;20112;-63
2022/03/21 08:03:26;;;;;;;25.40;22.05;;;;;;;;;;5027798;28;20621;-62
2022/03/21 08:05:52;;;;;;;24.27;21.75;;;;;;;;;;5027403;28;20479;-63
2022/03/21 08:08:20;;;;;;;24.55;21.95;;;;;;;;;;5024502;28;20052;-62
2022/03/21 08:10:46;;;;;;;25.95;20.80;;;;;;;;;;5026634;28;20069;-62
2022/03/21 08:13:19;;;;;;;24.52;19.95;;;;;;;;;;5026408;28;20041;-62
2022/03/21 08:15:45;;;;;;;22.88;20.50;;;;;;;;;;5027777;28;20068;-62
2022/03/21 08:18:13;;;;;;;22.25;18.55;;;;;;;;;;5027901;28;20120;-62
2022/03/21 08:20:43;;;;;;;21.52;19.08;;;;;;;;;;5009155;28;20549;-62
2022/03/21 08:23:11;;;;;;;23.90;19.98;;;;;;;;;;5042442;28;20507;-60
2022/03/21 08:25:38;;;;;;;21.77;19.45;;;;;;;;;;5026028;28;20041;-61
2022/03/21 08:28:05;;;;;;;22.95;18.67;;;;;;;;;;5026934;28;20067;-61
2022/03/21 08:30:35;;;;;;;24.02;20.00;;;;;;;;;;5042854;28;20463;-61
2022/03/21 08:33:03;;;;;;;22.75;18.83;;;;;;;;;;5028105;28;20107;-61
2022/03/21 08:35:33;;;;;;;20.75;17.30;;;;;;;;;;5027586;28;20041;-61
2022/03/21 08:37:59;;;;;;;21.08;18.33;;;;;;;;;;5026768;28;20124;-61
2022/03/21 08:40:26;;;;;;;21.50;17.55;;;;;;;;;;5028802;28;20072;-60
2022/03/21 08:42:52;;;;;;;19.83;16.90;;;;;;;;;;5030234;28;20112;-60
2022/03/21 08:45:18;;;;;;;22.40;17.77;;;;;;;;;;5031622;28;20112;-62
2022/03/21 08:47:45;;;;;;;22.23;18.98;;;;;;;;;;5031242;28;20530;-61
2022/03/21 08:50:11;;;;;;;19.02;16.83;;;;;;;;;;5029916;28;20778;-61
2022/03/21 08:52:38;;;;;;;18.92;16.88;;;;;;;;;;5031910;28;20140;-61
2022/03/21 08:55:05;;;;;;;23.77;18.33;;;;;;;;;;5030296;28;20110;-60
2022/03/21 08:57:31;;;;;;;20.42;17.83;;;;;;;;;;5028290;28;20095;-60
2022/03/21 08:59:57;;;;;;;20.60;17.13;;;;;;;;;;5031808;28;20048;-60
2022/03/21 09:02:26;;;;;;;21.85;17.85;;;;;;;;;;5030895;28;20045;-62
2022/03/21 09:04:52;;;;;;;21.80;17.63;;;;;;;;;;5029735;28;20046;-62
2022/03/21 09:07:19;;;;;;;21.70;17.15;;;;;;;;;;5031175;28;20092;-62
2022/03/21 09:09:45;;;;;;;21.15;18.95;;;;;;;;;;5029828;28;20072;-62
2022/03/21 09:12:11;;;;;;;20.08;17.75;;;;;;;;;;5030009;28;20045;-63
2022/03/21 09:14:38;;;;;;;21.08;18.75;;;;;;;;;;5024485;28;20368;-62
2022/03/21 09:17:05;;;;;;;23.27;18.27;;;;;;;;;;5043926;28;20120;-62
2022/03/21 09:19:31;;;;;;;19.85;17.75;;;;;;;;;;5029736;28;20106;-63
2022/03/21 09:21:58;;;;;;;19.77;17.63;;;;;;;;;;5029155;28;20045;-62
2022/03/21 09:24:24;;;;;;;19.40;17.20;;;;;;;;;;5032015;28;20092;-63
2022/03/21 09:26:51;;;;;;;19.40;16.98;;;;;;;;;;5028422;28;20044;-63
2022/03/21 09:29:17;;;;;;;21.40;17.48;;;;;;;;;;5028056;28;20042;-62
2022/03/21 09:31:43;;;;;;;21.15;18.52;;;;;;;;;;5028672;28;20046;-63
2022/03/21 09:34:11;;;;;;;22.10;17.63;;;;;;;;;;5028815;28;20042;-63
2022/03/21 09:36:37;;;;;;;18.33;16.35;;;;;;;;;;5028607;28;20133;-62
2022/03/21 09:39:04;;;;;;;22.02;18.20;;;;;;;;;;5028988;28;20466;-63
2022/03/21 09:41:30;;;;;;;27.90;19.13;;;;;;;;;;5029718;28;20518;-63
2022/03/21 09:44:00;;;;;;;19.88;17.77;;;;;;;;;;5044983;28;20041;-63
2022/03/21 09:46:26;;;;;;;23.42;17.98;;;;;;;;;;5028252;28;20044;-62
2022/03/21 09:48:54;;;;;;;24.00;18.77;;;;;;;;;;5030626;28;20044;-62
2022/03/21 09:51:21;;;;;;;19.67;17.55;;;;;;;;;;5041750;28;20088;-63
2022/03/21 09:53:47;;;;;;;21.65;17.90;;;;;;;;;;5028977;28;20118;-62
2022/03/21 09:56:14;;;;;;;21.88;17.88;;;;;;;;;;5027968;28;20045;-63
2022/03/21 09:58:40;;;;;;;21.52;18.00;;;;;;;;;;5028697;28;20041;-63
2022/03/21 10:01:06;;;;;;;26.10;17.92;;;;;;;;;;5030467;28;20427;-63
2022/03/21 10:03:34;;;;;;;22.15;18.20;;;;;;;;;;5028598;28;20041;-63
2022/03/21 10:06:00;;;;;;;36.20;20.73;;;;;;;;;;5029346;28;20041;-62
2022/03/21 10:08:27;;;;;;;29.65;19.10;;;;;;;;;;5028416;28;20052;-62
2022/03/21 10:10:55;;;;;;;21.50;18.27;;;;;;;;;;5026623;28;20087;-63
2022/03/21 10:13:22;;;;;;;19.70;17.17;;;;;;;;;;5011246;28;20045;-61
2022/03/21 10:15:48;;;;;;;20.48;18.40;;;;;;;;;;5029775;28;20650;-62
2022/03/21 10:18:16;;;;;;;23.63;17.00;;;;;;;;;;5011323;28;20037;-61
2022/03/21 10:20:42;;;;;;;21.85;16.90;;;;;;;;;;5028490;28;20119;-62
2022/03/21 10:23:25;;;;;;;20.30;17.45;;;;;;;;;;5028186;28;20045;-62
2022/03/21 10:25:51;;;;;;;20.63;16.70;;;;;;;;;;5029199;28;20499;-63
2022/03/21 10:28:46;;;;;;;20.33;18.25;;;;;;;;;;5029524;28;20055;-62
2022/03/21 10:31:12;;;;;;;19.77;17.02;;;;;;;;;;5027269;28;20049;-62
2022/03/21 10:33:38;;;;;;;19.75;17.55;;;;;;;;;;5027524;28;20059;-63
2022/03/21 10:36:05;;;;;;;22.38;16.60;;;;;;;;;;5028560;28;20041;-63
2022/03/21 10:38:35;;;;;;;20.35;18.13;;;;;;;;;;5028114;28;20041;-63
2022/03/21 10:41:08;;;;;;;23.33;18.17;;;;;;;;;;5027753;28;20503;-63
2022/03/21 10:43:35;;;;;;;20.05;17.52;;;;;;;;;;5027627;28;20041;-62
2022/03/21 10:46:02;;;;;;;18.92;16.67;;;;;;;;;;5029691;28;20399;-62
2022/03/21 10:48:32;;;;;;;17.85;15.60;;;;;;;;;;5029329;28;20037;-63
2022/03/21 10:50:59;;;;;;;19.13;17.10;;;;;;;;;;5042978;28;20519;-62
2022/03/21 10:53:32;;;;;;;20.35;17.55;;;;;;;;;;5027930;28;20095;-63
2022/03/21 10:55:58;;;;;;;21.75;16.92;;;;;;;;;;5029604;28;20037;-63
2022/03/21 10:58:35;;;;;;;18.40;15.80;;;;;;;;;;5029218;28;20067;-62
2022/03/21 11:01:18;;;;;;;19.40;16.80;;;;;;;;;;5027905;28;20407;-63
2022/03/21 11:03:46;;;;;;;21.67;17.63;;;;;;;;;;5027137;28;20048;-63
2022/03/21 11:06:13;;;;;;;20.33;18.23;;;;;;;;;;5028168;28;20045;-61
2022/03/21 11:08:39;;;;;;;19.65;17.58;;;;;;;;;;5028087;28;20041;-61
2022/03/21 11:11:07;;;;;;;19.70;17.52;;;;;;;;;;5029304;28;20091;-61
2022/03/21 11:13:33;;;;;;;21.92;18.65;;;;;;;;;;5027198;28;20125;-61
2022/03/21 11:16:00;;;;;;;26.02;20.42;;;;;;;;;;5029122;28;20072;-61
2022/03/21 11:18:27;;;;;;;24.33;19.92;;;;;;;;;;5028916;28;20510;-61
2022/03/21 11:20:54;;;;;;;23.10;19.65;;;;;;;;;;5027743;28;20055;-62
2022/03/21 11:23:21;;;;;;;23.35;19.15;;;;;;;;;;5029001;28;20499;-62
2022/03/21 11:25:52;;;;;;;23.02;19.48;;;;;;;;;;5028820;28;20333;-62
2022/03/21 11:28:40;;;;;;;25.15;19.60;;;;;;;;;;5027155;28;20071;-61
2022/03/21 11:31:06;;;;;;;22.85;19.50;;;;;;;;;;5027187;28;20045;-62
2022/03/21 11:33:32;;;;;;;22.85;19.17;;;;;;;;;;5027072;28;20045;-60
2022/03/21 11:36:02;;;;;;;22.95;18.75;;;;;;;;;;5027315;28;20072;-62
2022/03/21 11:38:30;;;;;;;23.98;19.17;;;;;;;;;;5027234;28;20083;-60
2022/03/21 11:41:10;;;;;;;22.33;19.73;;;;;;;;;;5029028;28;20103;-62
2022/03/21 11:43:37;;;;;;;27.02;21.83;;;;;;;;;;5028267;28;20049;-61
2022/03/21 11:46:20;;;;;;;23.15;20.70;;;;;;;;;;5027023;28;20073;-61
2022/03/21 11:48:47;;;;;;;22.02;18.73;;;;;;;;;;5028809;28;20041;-62
2022/03/21 11:51:16;;;;;;;21.88;19.65;;;;;;;;;;5025373;28;20782;-62
2022/03/21 11:53:49;;;;;;;23.83;21.08;;;;;;;;;;5028233;28;20037;-62
2022/03/21 11:56:34;;;;;;;21.77;18.80;;;;;;;;;;5027124;28;20041;-62
2022/03/21 11:59:00;;;;;;;20.45;18.25;;;;;;;;;;5024941;28;20052;-61
2022/03/21 12:01:28;;;;;;;22.35;18.48;;;;;;;;;;5043163;28;20041;-61
2022/03/21 12:03:54;;;;;;;19.60;17.55;;;;;;;;;;5025818;28;20046;-62
2022/03/21 12:06:23;;;;;;;19.83;17.27;;;;;;;;;;5028466;28;20037;-61
2022/03/21 12:08:53;;;;;;;24.85;18.20;;;;;;;;;;5026860;28;20038;-61
2022/03/21 12:11:38;;;;;;;25.40;18.63;;;;;;;;;;5028212;28;20030;-62
2022/03/21 12:14:22;;;;;;;24.63;19.52;;;;;;;;;;5011234;28;20052;-64
2022/03/21 12:16:49;;;;;;;19.33;17.30;;;;;;;;;;5030556;28;20045;-64
2022/03/21 12:19:15;;;;;;;21.40;18.25;;;;;;;;;;5030713;28;20087;-62
2022/03/21 12:21:41;;;;;;;21.90;18.70;;;;;;;;;;5031509;28;20054;-63
2022/03/21 12:24:11;;;;;;;23.55;19.23;;;;;;;;;;5030510;28;20041;-63
2022/03/21 12:26:37;;;;;;;25.10;21.27;;;;;;;;;;5027196;28;20329;-63
2022/03/21 12:29:32;;;;;;;24.77;18.88;;;;;;;;;;5013586;28;20087;-62
2022/03/21 12:32:17;;;;;;;23.02;20.52;;;;;;;;;;5031669;28;20053;-64
2022/03/21 12:34:44;;;;;;;23.65;20.20;;;;;;;;;;5030629;28;20132;-62
2022/03/21 12:37:24;;;;;;;23.45;18.88;;;;;;;;;;5029378;28;20387;-63
2022/03/21 12:39:50;;;;;;;23.00;20.52;;;;;;;;;;5032071;28;20072;-64
2022/03/21 12:42:18;;;;;;;21.60;19.27;;;;;;;;;;5030242;28;20513;-63
2022/03/21 12:44:44;;;;;;;24.30;21.10;;;;;;;;;;5029252;28;20034;-63
2022/03/21 12:47:13;;;;;;;24.23;20.70;;;;;;;;;;5032121;28;20041;-64
2022/03/21 12:49:49;;;;;;;25.05;20.67;;;;;;;;;;5030284;28;20033;-63
2022/03/21 12:52:35;;;;;;;23.65;20.92;;;;;;;;;;5031773;28;20491;-63
2022/03/21 12:55:03;;;;;;;24.48;20.52;;;;;;;;;;5041905;28;20100;-62
2022/03/21 12:57:31;;;;;;;22.90;20.50;;;;;;;;;;5029665;28;20056;-61
2022/03/21 13:00:16;;;;;;;25.15;20.38;;;;;;;;;;5031523;28;20045;-63
2022/03/21 13:02:42;;;;;;;22.60;20.17;;;;;;;;;;5013119;28;20044;-63
2022/03/21 13:10:43;;;;;;;23.05;20.55;;;;;;;;;;5030222;28;20059;-62
2022/03/21 13:13:09;;;;;;;22.60;20.20;;;;;;;;;;5013295;28;20481;-63
2022/03/21 13:15:35;;;;;;;25.10;20.88;;;;;;;;;;5031011;28;20099;-62
2022/03/21 13:18:02;;;;;;;23.33;20.75;;;;;;;;;;5029916;28;20052;-62
2022/03/21 13:20:31;;;;;;;24.20;21.13;;;;;;;;;;5029770;28;20402;-62
2022/03/21 13:22:58;;;;;;;23.83;21.13;;;;;;;;;;5030719;28;20052;-62
2022/03/21 13:25:37;;;;;;;23.60;21.10;;;;;;;;;;5028706;28;20037;-63
2022/03/21 13:28:15;;;;;;;26.33;22.52;;;;;;;;;;5029667;28;20098;-62
2022/03/21 13:30:54;;;;;;;22.70;20.17;;;;;;;;;;5031314;28;20080;-61
2022/03/21 13:33:21;;;;;;;23.77;20.40;;;;;;;;;;5028738;28;20095;-62
2022/03/21 13:35:51;;;;;;;29.23;21.15;;;;;;;;;;5030615;28;20065;-61
2022/03/21 13:38:21;;;;;;;23.50;20.10;;;;;;;;;;5029801;28;20549;-63
2022/03/21 13:40:47;;;;;;;22.52;20.20;;;;;;;;;;5030293;28;20047;-61
2022/03/21 13:43:17;;;;;;;24.38;21.08;;;;;;;;;;5028957;28;20077;-62
2022/03/21 13:45:43;;;;;;;23.55;21.10;;;;;;;;;;5030717;28;20446;-62
2022/03/21 13:48:10;;;;;;;25.98;22.13;;;;;;;;;;5030105;28;20357;-62
2022/03/21 13:50:39;;;;;;;24.08;20.85;;;;;;;;;;5028777;28;20391;-62
2022/03/21 13:53:24;;;;;;;24.88;20.33;;;;;;;;;;5011587;28;20041;-62
2022/03/21 13:55:51;;;;;;;156.48;35.78;;;;;;;;;;5028707;28;20507;-61
2022/03/21 13:58:27;;;;;;;36.40;22.65;;;;;;;;;;5029029;28;20045;-61
2022/03/21 14:00:54;;;;;;;41.58;22.23;;;;;;;;;;5028788;28;20053;-62
2022/03/21 14:03:33;;;;;;;45.30;23.30;;;;;;;;;;5012183;28;20045;-62
2022/03/21 14:05:59;;;;;;;29.17;22.10;;;;;;;;;;5040567;28;20084;-61
2022/03/21 14:08:25;;;;;;;27.13;22.05;;;;;;;;;;5029395;28;20041;-61
2022/03/21 14:10:52;;;;;;;27.50;23.38;;;;;;;;;;5030187;28;20038;-62
2022/03/21 14:13:22;;;;;;;27.08;23.35;;;;;;;;;;5028524;28;20049;-62
2022/03/21 14:15:49;;;;;;;26.25;23.45;;;;;;;;;;5029345;28;20725;-63
2022/03/21 14:18:19;;;;;;;30.52;23.15;;;;;;;;;;5028872;28;20057;-61
2022/03/21 14:20:45;;;;;;;25.75;23.00;;;;;;;;;;5029283;28;20029;-62
2022/03/21 14:23:11;;;;;;;27.05;24.25;;;;;;;;;;5011957;28;20100;-62
2022/03/21 14:28:21;;;;;;;29.08;22.02;;;;;;;;;;5029779;28;20043;-62
2022/03/21 14:30:48;;;;;;;26.67;23.75;;;;;;;;;;5028180;28;20053;-63
2022/03/21 14:33:14;;;;;;;25.88;22.17;;;;;;;;;;5028000;28;20053;-62
2022/03/21 14:35:40;;;;;;;25.75;22.73;;;;;;;;;;5027746;28;20033;-62
2022/03/21 14:38:06;;;;;;;31.10;23.58;;;;;;;;;;5028311;28;20116;-62
2022/03/21 14:40:33;;;;;;;25.73;23.05;;;;;;;;;;5027883;28;20053;-63
2022/03/21 14:42:59;;;;;;;25.25;21.95;;;;;;;;;;5026728;28;20048;-62
2022/03/21 14:45:25;;;;;;;26.02;23.30;;;;;;;;;;5029359;28;20487;-62
2022/03/21 14:47:51;;;;;;;28.17;22.85;;;;;;;;;;5027420;28;20033;-62